Time;durP1;ratioP1;P1;durP2;ratioP2;P2;SDS_P1;SDS_P2;PMS_P1;PMS_P2;Temp;Humidity;BMP_temperature;BMP_pressure;BME280_temperature;BME280_humidity;BME280_pressure;Samples;Min_cycle;Max_cycle;Signal;HPM_P1;HPM_P2
2023/04/17 00:00:13;;;;;;;4.50;1.35;;;;;;;1.40;54.11;102872.13;5038909;28;20045;-77
2023/04/17 00:02:39;;;;;;;4.63;1.80;;;;;;;1.38;53.83;102868.56;5036973;28;20041;-76
2023/04/17 00:05:08;;;;;;;4.15;1.80;;;;;;;1.36;53.48;102868.47;5044800;28;20045;-78
2023/04/17 00:07:37;;;;;;;4.38;2.03;;;;;;;1.34;54.04;102877.84;5041269;28;20048;-76
2023/04/17 00:10:06;;;;;;;7.65;1.63;;;;;;;1.33;53.84;102871.78;5033285;28;20053;-76
2023/04/17 00:12:34;;;;;;;5.47;2.88;;;;;;;1.32;53.63;102871.72;5042200;28;20045;-77
2023/04/17 00:15:01;;;;;;;5.15;2.00;;;;;;;1.30;54.05;102879.34;5034883;28;20414;-77
2023/04/17 00:17:28;;;;;;;6.03;1.77;;;;;;;1.29;54.78;102879.28;5037150;28;20047;-77
2023/04/17 00:19:55;;;;;;;3.88;1.42;;;;;;;1.29;53.92;102874.13;5036917;28;20045;-76
2023/04/17 00:22:21;;;;;;;8.32;1.20;;;;;;;1.28;54.53;102877.50;5043061;28;20072;-77
2023/04/17 00:24:48;;;;;;;6.38;1.83;;;;;;;1.24;54.38;102875.56;5038358;28;20053;-77
2023/04/17 00:27:15;;;;;;;5.53;1.52;;;;;;;1.25;54.59;102872.19;5039798;28;20053;-76
2023/04/17 00:29:43;;;;;;;9.73;1.70;;;;;;;1.23;54.43;102869.53;5036519;28;20052;-77
2023/04/17 00:32:10;;;;;;;6.13;1.50;;;;;;;1.23;54.34;102873.81;5046526;28;20652;-76
2023/04/17 00:34:39;;;;;;;6.03;1.58;;;;;;;1.21;54.79;102875.41;5037902;28;20391;-77
2023/04/17 00:37:06;;;;;;;5.70;2.30;;;;;;;1.20;54.13;102877.09;5041549;28;20049;-77
2023/04/17 00:39:33;;;;;;;3.58;1.60;;;;;;;1.20;54.20;102878.78;5046199;28;20526;-77
2023/04/17 00:42:00;;;;;;;5.20;1.52;;;;;;;1.18;54.44;102881.28;5044957;28;20462;-76
2023/04/17 00:44:27;;;;;;;3.25;1.98;;;;;;;1.16;54.78;102880.28;5044806;28;20052;-77
2023/04/17 00:46:56;;;;;;;5.72;1.65;;;;;;;1.16;54.90;102884.56;5044999;28;20045;-77
2023/04/17 00:49:24;;;;;;;4.68;2.28;;;;;;;1.13;54.59;102878.44;5050862;28;20482;-76
2023/04/17 00:51:52;;;;;;;3.08;1.58;;;;;;;1.12;54.19;102880.94;5040206;28;20049;-77
2023/04/17 00:54:20;;;;;;;2.40;1.10;;;;;;;1.11;54.58;102881.72;5044359;28;20046;-76
2023/04/17 00:56:47;;;;;;;10.68;1.80;;;;;;;1.08;54.76;102879.91;5045797;28;20052;-76
2023/04/17 00:59:17;;;;;;;5.25;1.65;;;;;;;1.07;54.59;102882.38;5051266;28;20049;-76
2023/04/17 01:01:45;;;;;;;3.38;1.77;;;;;;;1.05;54.94;102881.41;5047186;28;20065;-76
2023/04/17 01:04:13;;;;;;;2.40;1.25;;;;;;;1.03;55.07;102889.06;5044479;28;20052;-76
2023/04/17 01:06:40;;;;;;;4.07;1.63;;;;;;;1.01;55.02;102882.94;5040190;28;20387;-76
2023/04/17 01:09:08;;;;;;;6.60;1.80;;;;;;;0.99;54.63;102887.09;5045986;28;20041;-77
2023/04/17 01:11:35;;;;;;;4.15;1.52;;;;;;;0.98;54.57;102893.06;5046433;28;20819;-77
2023/04/17 01:14:02;;;;;;;4.88;1.73;;;;;;;0.96;54.95;102891.19;5040346;28;20422;-76
2023/04/17 01:16:29;;;;;;;2.25;1.45;;;;;;;0.90;55.17;102884.91;5041976;28;20052;-77
2023/04/17 01:18:56;;;;;;;2.83;1.58;;;;;;;0.90;55.27;102890.06;5044454;28;20049;-76
2023/04/17 01:21:24;;;;;;;6.65;1.67;;;;;;;0.90;55.41;102899.47;5037913;28;20498;-78
2023/04/17 01:23:52;;;;;;;4.15;1.98;;;;;;;0.88;55.58;102901.97;5042230;28;20045;-77
2023/04/17 01:26:22;;;;;;;4.53;1.40;;;;;;;0.87;55.53;102904.44;5041787;28;20123;-77
2023/04/17 01:28:53;;;;;;;9.05;1.73;;;;;;;0.85;55.16;102900.91;5046481;28;20041;-76
2023/04/17 01:31:20;;;;;;;4.78;1.77;;;;;;;0.85;55.33;102906.03;5047973;28;20763;-76
2023/04/17 01:33:47;;;;;;;4.72;1.58;;;;;;;0.82;55.52;102908.44;5050586;28;20060;-77
2023/04/17 01:36:15;;;;;;;4.57;1.92;;;;;;;0.80;55.32;102908.38;5039450;28;20489;-76
2023/04/17 01:38:42;;;;;;;4.70;1.48;;;;;;;0.80;55.71;102915.22;5043303;28;20045;-76
2023/04/17 01:41:09;;;;;;;3.63;1.77;;;;;;;0.78;55.54;102915.13;5041479;28;20053;-76
2023/04/17 01:43:39;;;;;;;7.63;1.50;;;;;;;0.75;55.42;102914.06;5042914;28;20041;-77
2023/04/17 01:46:06;;;;;;;6.50;1.80;;;;;;;0.75;55.82;102908.94;5042652;28;20045;-76
2023/04/17 01:48:34;;;;;;;6.07;1.25;;;;;;;0.71;55.63;102909.53;5043122;28;20859;-77
2023/04/17 01:51:01;;;;;;;3.25;1.40;;;;;;;0.72;56.06;102919.03;5040434;28;20051;-77
2023/04/17 01:53:30;;;;;;;4.50;1.60;;;;;;;0.63;55.74;102910.00;5041368;28;20084;-76
2023/04/17 01:55:57;;;;;;;5.95;1.27;;;;;;;0.62;55.89;102909.91;5042703;28;20413;-76
2023/04/17 01:58:24;;;;;;;5.13;2.08;;;;;;;0.65;55.47;102908.41;5040799;28;20041;-76
2023/04/17 02:00:52;;;;;;;5.88;2.38;;;;;;;0.65;56.21;102918.72;5044236;28;20063;-76
2023/04/17 02:03:19;;;;;;;4.93;1.65;;;;;;;0.64;55.82;102910.88;5045576;28;20051;-76
2023/04/17 02:05:46;;;;;;;3.80;1.90;;;;;;;0.63;56.13;102912.56;5037605;28;20060;-76
2023/04/17 02:08:14;;;;;;;3.65;1.88;;;;;;;0.63;55.84;102915.16;5041967;28;20414;-76
2023/04/17 02:10:41;;;;;;;5.00;1.48;;;;;;;0.62;55.56;102909.91;5042493;28;20041;-77
2023/04/17 02:13:08;;;;;;;3.55;1.40;;;;;;;0.59;56.34;102913.19;5042071;28;20402;-76
2023/04/17 02:15:36;;;;;;;4.07;1.73;;;;;;;0.60;55.90;102911.53;5043771;28;20063;-76
2023/04/17 02:18:05;;;;;;;3.15;1.30;;;;;;;0.59;55.89;102922.59;5042830;28;20048;-76
2023/04/17 02:20:32;;;;;;;3.08;1.38;;;;;;;0.58;55.49;102914.00;5043358;28;20041;-77
2023/04/17 02:22:59;;;;;;;2.67;1.65;;;;;;;0.58;56.58;102918.25;5040239;28;20829;-76
2023/04/17 02:25:27;;;;;;;5.03;1.27;;;;;;;0.57;56.17;102925.09;5041038;28;20075;-77
2023/04/17 02:27:55;;;;;;;5.15;2.03;;;;;;;0.56;56.60;102927.56;5049017;28;20040;-76
2023/04/17 02:30:22;;;;;;;3.92;1.63;;;;;;;0.56;56.49;102925.00;5041789;28;20067;-76
2023/04/17 02:32:51;;;;;;;4.45;1.40;;;;;;;0.55;56.82;102930.94;5042600;28;20781;-76
2023/04/17 02:35:20;;;;;;;3.78;1.48;;;;;;;0.55;55.92;102928.38;5039548;28;20052;-71
2023/04/17 02:37:47;;;;;;;5.65;1.55;;;;;;;0.53;56.22;102933.41;5039084;28;20180;-69
2023/04/17 02:40:14;;;;;;;4.20;1.77;;;;;;;0.52;56.52;102939.38;5038350;28;20413;-70
2023/04/17 02:42:41;;;;;;;2.75;1.48;;;;;;;0.50;56.23;102943.53;5037491;28;20055;-69
2023/04/17 02:45:09;;;;;;;4.78;1.92;;;;;;;0.50;56.17;102942.66;5038649;28;20060;-70
2023/04/17 02:47:36;;;;;;;2.28;1.23;;;;;;;0.48;56.46;102936.53;5034463;28;20476;-69
2023/04/17 02:50:03;;;;;;;3.25;1.20;;;;;;;0.48;56.60;102944.25;5040352;28;20045;-70
2023/04/17 02:52:33;;;;;;;5.95;1.38;;;;;;;0.47;56.20;102940.78;5036329;28;20046;-69
2023/04/17 02:54:59;;;;;;;3.47;1.70;;;;;;;0.47;56.57;102945.94;5037601;28;20115;-70
2023/04/17 02:57:27;;;;;;;4.22;1.40;;;;;;;0.47;56.38;102955.34;5036191;28;20054;-69
2023/04/17 02:59:54;;;;;;;2.80;1.25;;;;;;;0.46;56.38;102951.88;5036292;28;20485;-70
2023/04/17 03:02:21;;;;;;;2.92;1.05;;;;;;;0.45;56.55;102944.94;5041533;28;20498;-69
2023/04/17 03:04:49;;;;;;;4.88;1.30;;;;;;;0.44;56.62;102940.59;5039218;28;20056;-69
2023/04/17 03:07:18;;;;;;;3.10;1.50;;;;;;;0.44;56.59;102953.47;5040053;28;20525;-69
2023/04/17 03:09:47;;;;;;;6.65;1.73;;;;;;;0.44;56.22;102953.47;5034338;28;20045;-70
2023/04/17 03:12:15;;;;;;;2.28;1.50;;;;;;;0.42;56.94;102948.22;5038079;28;20137;-70
2023/04/17 03:14:43;;;;;;;4.18;1.45;;;;;;;0.42;56.33;102942.19;5037516;28;20048;-70
2023/04/17 03:17:10;;;;;;;4.40;1.52;;;;;;;0.42;56.82;102947.34;5034805;28;20049;-69
2023/04/17 03:19:38;;;;;;;2.13;1.20;;;;;;;0.41;56.88;102953.28;5040864;28;20103;-69
2023/04/17 03:22:05;;;;;;;2.33;1.50;;;;;;;0.41;56.42;102948.16;5039179;28;20041;-70
2023/04/17 03:24:32;;;;;;;3.10;1.17;;;;;;;0.40;56.10;102952.41;5039808;28;20055;-69
2023/04/17 03:27:01;;;;;;;5.22;1.88;;;;;;;0.40;56.36;102959.25;5035122;28;20156;-69
2023/04/17 03:29:28;;;;;;;3.17;1.40;;;;;;;0.39;56.57;102954.88;5035576;28;20048;-69
2023/04/17 03:31:55;;;;;;;4.43;1.85;;;;;;;0.37;56.95;102953.88;5038877;28;20050;-70
2023/04/17 03:34:22;;;;;;;3.22;1.77;;;;;;;0.37;56.74;102959.03;5041121;28;20064;-70
2023/04/17 03:36:49;;;;;;;2.55;1.30;;;;;;;0.35;56.71;102958.09;5035427;28;20055;-70
2023/04/17 03:39:16;;;;;;;7.35;1.60;;;;;;;0.33;56.67;102970.84;5037466;28;20063;-69
2023/04/17 03:41:43;;;;;;;3.35;1.50;;;;;;;0.31;56.84;102967.28;5039730;28;20544;-69
2023/04/17 03:44:11;;;;;;;2.65;1.38;;;;;;;0.31;56.74;102966.41;5033990;28;20050;-69
2023/04/17 03:46:39;;;;;;;3.75;1.42;;;;;;;0.30;56.88;102965.50;5035578;28;20040;-69
2023/04/17 03:49:06;;;;;;;3.15;1.02;;;;;;;0.30;56.83;102967.19;5035488;28;20049;-70
2023/04/17 03:51:33;;;;;;;2.35;1.73;;;;;;;0.31;57.13;102971.53;5039417;28;20048;-70
2023/04/17 03:54:00;;;;;;;2.53;1.17;;;;;;;0.31;56.86;102972.41;5035867;28;20063;-70
2023/04/17 03:56:26;;;;;;;3.75;1.73;;;;;;;0.31;56.95;102974.97;5038984;28;20049;-69
2023/04/17 03:58:53;;;;;;;6.47;1.70;;;;;;;0.30;56.67;102969.78;5036647;28;20057;-70
2023/04/17 04:01:22;;;;;;;5.55;1.48;;;;;;;0.32;57.19;102968.19;5039282;28;20449;-69
2023/04/17 04:03:49;;;;;;;5.47;1.55;;;;;;;0.32;57.16;102969.06;5034553;28;20060;-69
2023/04/17 04:06:19;;;;;;;5.32;1.63;;;;;;;0.33;57.51;102969.94;5038844;28;20056;-69
2023/04/17 04:08:46;;;;;;;2.50;1.13;;;;;;;0.33;57.50;102981.13;5034180;28;20068;-70
2023/04/17 04:11:13;;;;;;;3.58;1.40;;;;;;;0.34;56.48;102979.41;5032829;28;20386;-70
2023/04/17 04:13:40;;;;;;;3.22;1.27;;;;;;;0.35;57.24;102978.66;5035211;28;20041;-69
2023/04/17 04:16:08;;;;;;;4.88;1.50;;;;;;;0.36;57.44;102985.56;5034987;28;20104;-70
2023/04/17 04:18:36;;;;;;;6.78;1.73;;;;;;;0.36;57.43;102978.72;5040293;28;20051;-69
2023/04/17 04:21:04;;;;;;;2.92;0.98;;;;;;;0.38;57.13;102983.97;5040118;28;20049;-70
2023/04/17 04:23:32;;;;;;;4.95;1.48;;;;;;;0.39;57.07;102994.31;5033983;28;20041;-70
2023/04/17 04:26:01;;;;;;;4.70;1.15;;;;;;;0.41;57.31;102989.28;5037318;28;20494;-70
2023/04/17 04:28:29;;;;;;;2.30;1.05;;;;;;;0.43;57.42;102998.00;5034679;28;20060;-70
2023/04/17 04:30:57;;;;;;;4.85;1.55;;;;;;;0.45;57.72;103004.09;5032567;28;20647;-70
2023/04/17 04:33:24;;;;;;;4.47;1.33;;;;;;;0.46;57.33;103000.72;5034124;28;20136;-69
2023/04/17 04:35:54;;;;;;;3.88;1.52;;;;;;;0.50;57.08;103007.81;5038509;28;20055;-70
2023/04/17 04:38:29;;;;;;;4.05;1.33;;;;;;;0.53;57.25;103019.97;5034526;28;20056;-70
2023/04/17 04:41:00;;;;;;;6.97;1.15;;;;;;;0.59;56.99;103004.88;5036824;28;20056;-69
2023/04/17 04:43:29;;;;;;;3.85;1.13;;;;;;;0.63;57.39;103012.88;5036324;28;20050;-70
2023/04/17 04:45:56;;;;;;;4.57;0.95;;;;;;;0.67;57.44;103009.69;5036581;28;21899;-69
2023/04/17 04:48:23;;;;;;;2.58;1.00;;;;;;;0.72;56.84;103015.09;5037850;28;20053;-69
2023/04/17 04:50:50;;;;;;;2.45;0.80;;;;;;;0.77;57.27;103020.50;5035523;28;20056;-70
2023/04/17 04:53:18;;;;;;;3.95;1.20;;;;;;;0.83;56.64;103021.75;5034369;28;20051;-69
2023/04/17 04:55:45;;;;;;;6.13;1.30;;;;;;;0.89;56.75;103023.78;5036346;28;20057;-70
2023/04/17 04:58:12;;;;;;;2.70;1.70;;;;;;;0.96;57.56;103028.47;5034074;28;20492;-70
2023/04/17 05:00:39;;;;;;;2.65;0.95;;;;;;;1.03;56.73;103025.47;5037371;28;20047;-70
2023/04/17 05:03:06;;;;;;;0.80;0.60;;;;;;;1.10;57.07;103032.72;5030832;28;20049;-70
2023/04/17 05:05:34;;;;;;;1.58;0.82;;;;;;;1.16;56.84;103027.03;5034857;28;20498;-70
2023/04/17 05:08:01;;;;;;;5.15;0.95;;;;;;;1.20;56.85;103023.84;5036661;28;20046;-70
2023/04/17 05:10:30;;;;;;;3.78;0.77;;;;;;;1.32;56.47;103039.09;5032300;28;20133;-70
2023/04/17 05:12:57;;;;;;;4.53;0.95;;;;;;;1.35;56.70;103028.94;5034882;28;20053;-70
2023/04/17 05:15:24;;;;;;;3.10;1.08;;;;;;;1.48;55.80;103038.22;5034760;28;20056;-70
2023/04/17 05:17:51;;;;;;;3.83;1.20;;;;;;;1.55;56.15;103042.91;5037297;28;20103;-70
2023/04/17 05:20:18;;;;;;;1.75;0.90;;;;;;;1.63;56.25;103046.81;5035142;28;20054;-69
2023/04/17 05:22:45;;;;;;;2.38;0.80;;;;;;;1.71;55.66;103047.22;5036703;28;20049;-69
2023/04/17 05:25:12;;;;;;;5.78;1.63;;;;;;;1.77;56.36;103047.56;5039877;28;20141;-69
2023/04/17 05:27:40;;;;;;;3.08;0.98;;;;;;;1.84;56.12;103049.66;5035126;28;20046;-70
2023/04/17 05:30:08;;;;;;;2.95;1.40;;;;;;;1.92;55.66;103040.63;5040232;28;20046;-70
2023/04/17 05:32:35;;;;;;;2.22;0.75;;;;;;;1.98;55.16;103047.81;5037117;28;20518;-70
2023/04/17 05:35:02;;;;;;;1.52;0.88;;;;;;;2.05;55.47;103046.44;5041939;28;20045;-70
2023/04/17 05:37:29;;;;;;;3.40;2.15;;;;;;;2.12;55.28;103043.41;5039893;28;20046;-69
2023/04/17 05:39:58;;;;;;;6.00;0.88;;;;;;;2.18;55.54;103049.75;5037699;28;20052;-69
2023/04/17 05:42:25;;;;;;;4.07;1.10;;;;;;;2.25;55.34;103045.81;5039760;28;20040;-69
2023/04/17 05:44:53;;;;;;;5.30;0.88;;;;;;;2.33;55.28;103059.97;5040268;28;20647;-69
2023/04/17 05:47:20;;;;;;;2.25;1.15;;;;;;;2.38;54.93;103048.19;5038781;28;20444;-69
2023/04/17 05:49:50;;;;;;;4.40;0.95;;;;;;;2.43;54.54;103045.88;5040837;28;20433;-70
2023/04/17 05:52:17;;;;;;;2.28;0.90;;;;;;;2.50;54.16;103054.81;5038013;28;20080;-70
2023/04/17 05:54:44;;;;;;;2.75;1.00;;;;;;;2.55;54.35;103048.19;5038979;28;20057;-70
2023/04/17 05:57:11;;;;;;;4.40;0.90;;;;;;;2.62;54.37;103052.88;5037379;28;20049;-71
2023/04/17 05:59:38;;;;;;;5.80;1.15;;;;;;;2.68;53.45;103060.91;5039457;28;20049;-71
2023/04/17 06:02:07;;;;;;;1.30;0.68;;;;;;;2.75;53.46;103060.41;5030470;28;20037;-72
2023/04/17 06:04:34;;;;;;;7.75;1.73;;;;;;;2.79;53.84;103052.03;5037118;28;20099;-72
2023/04/17 06:07:01;;;;;;;5.53;0.98;;;;;;;2.87;53.43;103063.56;5035283;28;20045;-72
2023/04/17 06:09:29;;;;;;;4.13;0.80;;;;;;;2.92;53.07;103062.13;5039847;28;20063;-72
2023/04/17 06:11:56;;;;;;;6.18;0.95;;;;;;;3.00;53.21;103062.50;5036904;28;20571;-72
2023/04/17 06:14:23;;;;;;;1.75;0.70;;;;;;;3.06;52.98;103062.81;5032840;28;20044;-71
2023/04/17 06:16:49;;;;;;;3.30;0.95;;;;;;;3.14;52.76;103060.59;5038023;28;20053;-71
2023/04/17 06:19:18;;;;;;;3.15;1.23;;;;;;;3.20;52.62;103063.47;5039382;28;20585;-71
2023/04/17 06:21:45;;;;;;;2.05;0.80;;;;;;;3.25;52.76;103062.00;5038277;28;20051;-71
2023/04/17 06:24:12;;;;;;;6.88;0.82;;;;;;;3.33;52.69;103067.53;5040166;28;20406;-72
2023/04/17 06:26:38;;;;;;;3.42;0.60;;;;;;;3.40;52.32;103063.56;5037241;28;20413;-71
2023/04/17 06:29:05;;;;;;;1.67;0.60;;;;;;;3.47;52.63;103065.59;5037963;28;20466;-71
2023/04/17 06:31:32;;;;;;;1.23;0.55;;;;;;;3.54;52.24;103073.72;5034968;28;20063;-75
2023/04/17 06:33:59;;;;;;;1.58;0.85;;;;;;;3.62;52.05;103065.47;5036854;28;20045;-74
2023/04/17 06:36:27;;;;;;;3.05;0.80;;;;;;;3.68;50.86;103071.81;5042285;28;20083;-73
2023/04/17 06:38:54;;;;;;;3.70;1.38;;;;;;;3.74;50.59;103073.78;5032089;28;20580;-73
2023/04/17 06:41:21;;;;;;;2.38;0.75;;;;;;;3.77;50.34;103064.47;5038632;28;20091;-74
2023/04/17 06:43:48;;;;;;;4.68;0.60;;;;;;;3.90;50.48;103067.59;5038219;28;20049;-74
2023/04/17 06:46:15;;;;;;;2.97;0.70;;;;;;;3.94;50.99;103069.53;5039880;28;20053;-73
2023/04/17 06:48:42;;;;;;;1.45;0.63;;;;;;;4.03;49.91;103078.56;5039518;28;20051;-73
2023/04/17 06:51:09;;;;;;;1.63;0.60;;;;;;;4.12;49.64;103085.88;5036813;28;20051;-73
2023/04/17 06:53:37;;;;;;;1.75;0.68;;;;;;;4.20;49.95;103079.34;5035857;28;20052;-74
2023/04/17 06:56:05;;;;;;;1.95;0.93;;;;;;;4.26;49.88;103074.44;5037268;28;20072;-73
2023/04/17 06:58:32;;;;;;;3.25;0.60;;;;;;;4.35;49.68;103078.25;5039535;28;20063;-73
2023/04/17 07:00:59;;;;;;;2.67;0.52;;;;;;;4.48;49.64;103077.97;5036816;28;20045;-76
2023/04/17 07:03:26;;;;;;;4.78;0.50;;;;;;;4.50;50.02;103064.28;5044762;28;20041;-77
2023/04/17 07:05:52;;;;;;;3.83;0.80;;;;;;;4.70;49.05;103078.09;5040039;28;20049;-77
2023/04/17 07:08:21;;;;;;;2.72;0.70;;;;;;;4.85;48.68;103082.13;5044372;28;20043;-75
2023/04/17 07:10:49;;;;;;;1.48;0.65;;;;;;;4.97;48.82;103072.28;5037056;28;20055;-75
2023/04/17 07:13:16;;;;;;;5.25;0.57;;;;;;;5.15;49.23;103082.50;5043010;28;20045;-74
2023/04/17 07:15:43;;;;;;;1.55;0.63;;;;;;;5.31;48.59;103089.22;5038792;28;20064;-75
2023/04/17 07:18:10;;;;;;;3.35;0.60;;;;;;;5.42;48.66;103082.75;5023389;28;20070;-77
2023/04/17 07:20:37;;;;;;;1.40;0.63;;;;;;;5.36;47.71;103054.88;5040200;28;20059;-78
2023/04/17 07:23:04;;;;;;;2.45;0.50;;;;;;;5.58;48.42;103064.38;5043249;28;20055;-77
2023/04/17 07:25:31;;;;;;;1.17;0.70;;;;;;;5.83;48.28;103093.84;5039919;28;20052;-75
2023/04/17 07:27:59;;;;;;;2.85;0.50;;;;;;;5.95;48.36;103086.56;5038261;28;20053;-76
2023/04/17 07:30:27;;;;;;;2.92;0.70;;;;;;;6.10;48.68;103101.84;5036741;28;20038;-75
2023/04/17 07:32:54;;;;;;;2.25;0.70;;;;;;;6.23;48.15;103106.66;5040208;28;20087;-76
2023/04/17 07:35:21;;;;;;;6.72;0.65;;;;;;;6.38;48.01;103108.91;5038516;28;20673;-77
2023/04/17 07:37:48;;;;;;;1.10;0.52;;;;;;;6.58;47.81;103104.44;5036567;28;20778;-77
2023/04/17 07:40:15;;;;;;;0.95;0.60;;;;;;;6.78;47.42;103105.13;5039422;28;20063;-74
2023/04/17 07:42:42;;;;;;;6.97;1.50;;;;;;;6.93;47.66;103100.44;5037974;28;20057;-76
2023/04/17 07:45:11;;;;;;;2.63;0.47;;;;;;;7.09;46.97;103108.78;5036177;28;20411;-76
2023/04/17 07:47:38;;;;;;;2.20;0.63;;;;;;;7.24;46.48;103104.06;5040601;28;20049;-77
2023/04/17 07:50:06;;;;;;;3.78;0.60;;;;;;;7.40;46.07;103102.88;5035568;28;20599;-73
2023/04/17 07:52:33;;;;;;;3.25;0.77;;;;;;;7.55;46.78;103107.66;5035000;28;20042;-73
2023/04/17 07:55:00;;;;;;;5.43;0.60;;;;;;;7.71;46.07;103106.41;5035500;28;20517;-77
2023/04/17 07:57:27;;;;;;;1.38;0.63;;;;;;;7.92;46.13;103111.41;5042779;28;20041;-77
2023/04/17 07:59:54;;;;;;;4.07;0.70;;;;;;;8.09;46.08;103098.03;5040522;28;20040;-76
2023/04/17 08:02:22;;;;;;;3.47;0.60;;;;;;;8.33;45.41;103112.59;5037606;28;20056;-75
2023/04/17 08:04:51;;;;;;;4.97;1.35;;;;;;;8.56;45.38;103110.66;5036893;28;20160;-76
2023/04/17 08:07:19;;;;;;;3.10;0.70;;;;;;;8.54;45.45;103081.97;5042222;28;20502;-74
2023/04/17 08:09:46;;;;;;;2.53;0.80;;;;;;;8.93;45.37;103111.63;5036742;28;20052;-76
2023/04/17 08:12:13;;;;;;;2.35;0.63;;;;;;;9.07;45.11;103110.25;5038365;28;20516;-73
2023/04/17 08:14:39;;;;;;;4.25;0.70;;;;;;;9.21;44.16;103108.88;5033423;28;20049;-75
2023/04/17 08:17:07;;;;;;;1.73;0.85;;;;;;;9.42;43.52;103115.44;5035609;28;20051;-76
2023/04/17 08:19:35;;;;;;;0.70;0.60;;;;;;;9.58;43.70;103109.75;5036301;28;20523;-76
2023/04/17 08:22:05;;;;;;;2.08;0.65;;;;;;;9.74;42.59;103110.97;5037815;28;20925;-75
2023/04/17 08:24:31;;;;;;;1.58;0.70;;;;;;;9.93;41.14;103116.59;5037619;28;20060;-75
2023/04/17 08:26:58;;;;;;;2.70;0.55;;;;;;;10.12;40.92;103113.53;5035334;28;20041;-75
2023/04/17 08:29:26;;;;;;;2.08;0.50;;;;;;;10.27;40.75;103116.47;5040453;28;20410;-75
2023/04/17 08:31:53;;;;;;;2.60;0.50;;;;;;;10.39;40.68;103126.31;5038207;28;20060;-73
2023/04/17 08:34:20;;;;;;;4.38;0.60;;;;;;;10.49;39.79;103117.81;5035171;28;20052;-76
2023/04/17 08:36:48;;;;;;;3.38;1.13;;;;;;;10.58;39.53;103114.47;5038364;28;20859;-75
2023/04/17 08:39:15;;;;;;;1.48;0.50;;;;;;;10.70;38.07;103112.13;5038780;28;20048;-76
2023/04/17 08:41:49;;;;;;;4.40;0.50;;;;;;;10.78;38.30;103123.56;5040142;28;20055;-74
2023/04/17 08:44:19;;;;;;;1.52;0.50;;;;;;;10.87;37.89;103121.97;5038997;28;20050;-74
2023/04/17 08:46:47;;;;;;;5.13;0.77;;;;;;;10.95;37.27;103136.94;5033398;28;20060;-74
2023/04/17 08:49:14;;;;;;;1.92;0.75;;;;;;;10.96;36.03;103128.28;5035064;28;20053;-73
2023/04/17 08:51:41;;;;;;;3.10;0.70;;;;;;;10.99;36.20;103136.16;5038461;28;20115;-75
2023/04/17 08:54:09;;;;;;;2.13;0.70;;;;;;;11.00;35.89;103130.06;5037920;28;20067;-75
2023/04/17 08:56:36;;;;;;;1.05;0.60;;;;;;;11.00;35.88;103140.53;5037156;28;20045;-74
2023/04/17 08:59:03;;;;;;;1.88;0.45;;;;;;;11.02;36.63;103133.59;5043990;28;20041;-74
2023/04/17 09:01:33;;;;;;;2.17;0.68;;;;;;;11.05;36.31;103139.75;5043270;28;20045;-73
2023/04/17 09:04:00;;;;;;;2.55;0.57;;;;;;;11.06;36.22;103134.53;5036580;28;20410;-73
2023/04/17 09:06:28;;;;;;;1.73;0.63;;;;;;;11.07;36.46;103140.63;5038246;28;20040;-77
2023/04/17 09:08:57;;;;;;;3.20;1.02;;;;;;;11.09;35.66;103144.16;5047339;28;20858;-80
2023/04/17 09:11:26;;;;;;;1.67;0.47;;;;;;;11.14;36.07;103139.91;5040076;28;20049;-73
2023/04/17 09:13:53;;;;;;;5.47;0.50;;;;;;;11.19;35.89;103146.97;5037407;28;20053;-73
2023/04/17 09:16:20;;;;;;;1.42;0.60;;;;;;;11.24;35.36;103136.56;5040814;28;20517;-73
2023/04/17 09:18:48;;;;;;;1.25;0.50;;;;;;;11.32;34.61;103150.66;5036035;28;20044;-73
2023/04/17 09:21:17;;;;;;;2.42;0.63;;;;;;;11.36;34.29;103143.75;5038696;28;20418;-73
2023/04/17 09:23:49;;;;;;;3.15;0.80;;;;;;;11.42;34.79;103143.84;5039226;28;20438;-75
2023/04/17 09:26:18;;;;;;;3.65;0.50;;;;;;;11.45;34.76;103139.53;5038003;28;20056;-73
2023/04/17 09:29:07;;;;;;;1.27;0.68;;;;;;;11.51;34.75;103145.75;5040964;28;20042;-72
2023/04/17 09:31:36;;;;;;;1.85;1.00;;;;;;;11.54;34.27;103136.19;5037616;28;20046;-72
2023/04/17 09:34:04;;;;;;;1.20;0.50;;;;;;;11.58;34.81;103144.94;5037750;28;20587;-73
2023/04/17 09:36:32;;;;;;;2.83;0.75;;;;;;;11.64;34.53;103145.03;5043314;28;20057;-72
2023/04/17 09:39:02;;;;;;;5.07;0.60;;;;;;;11.71;34.68;103141.69;5039457;28;20076;-73
2023/04/17 09:41:31;;;;;;;3.28;1.52;;;;;;;11.76;34.41;103140.00;5041615;28;20489;-73
2023/04/17 09:44:04;;;;;;;4.03;0.50;;;;;;;11.80;34.49;103144.41;5038004;28;20050;-73
2023/04/17 09:46:34;;;;;;;3.45;0.70;;;;;;;11.84;35.01;103145.34;5033146;28;20049;-72
2023/04/17 09:49:05;;;;;;;0.90;0.70;;;;;;;11.88;34.37;103144.56;5039435;28;20053;-72
2023/04/17 09:51:32;;;;;;;2.58;0.68;;;;;;;11.91;34.78;103140.25;5040364;28;20509;-73
2023/04/17 09:54:04;;;;;;;2.35;0.70;;;;;;;11.97;33.69;103144.69;5039995;28;20049;-74
2023/04/17 09:56:32;;;;;;;3.60;0.57;;;;;;;12.00;34.27;103139.50;5038215;28;20056;-73
2023/04/17 09:59:02;;;;;;;1.98;0.70;;;;;;;12.06;34.33;103143.94;5041568;28;20129;-72
2023/04/17 10:01:32;;;;;;;1.88;0.50;;;;;;;12.08;34.43;103144.84;5039407;28;20112;-71
2023/04/17 10:04:00;;;;;;;2.25;0.50;;;;;;;12.11;33.95;103147.50;5039398;28;20041;-72
2023/04/17 10:06:28;;;;;;;5.88;0.70;;;;;;;12.12;33.80;103144.00;5038374;28;20519;-71
2023/04/17 10:08:55;;;;;;;1.08;0.60;;;;;;;12.16;33.59;103143.22;5037983;28;20055;-71
2023/04/17 10:11:24;;;;;;;1.45;0.65;;;;;;;12.19;33.54;103151.09;5037404;28;20037;-70
2023/04/17 10:14:00;;;;;;;4.60;0.45;;;;;;;12.23;33.58;103149.41;5039889;28;20053;-71
2023/04/17 10:16:36;;;;;;;1.88;0.60;;;;;;;12.25;33.66;103140.69;5037398;28;20053;-71
2023/04/17 10:19:29;;;;;;;1.77;0.70;;;;;;;12.29;32.84;103138.97;5035254;28;20557;-71
2023/04/17 10:22:39;;;;;;;0.98;0.43;;;;;;;12.28;33.05;103145.97;5038525;28;20164;-71
2023/04/17 10:25:21;;;;;;;4.47;0.98;;;;;;;12.31;32.91;103146.00;5038683;28;20129;-70
2023/04/17 10:27:50;;;;;;;5.38;1.35;;;;;;;12.28;32.86;103145.97;5035182;28;20532;-70
2023/04/17 10:30:18;;;;;;;0.60;0.40;;;;;;;12.31;33.26;103158.25;5036576;28;20048;-70
2023/04/17 10:33:07;;;;;;;5.68;0.82;;;;;;;12.29;32.58;103146.84;5036084;28;20084;-70
2023/04/17 10:35:35;;;;;;;1.48;0.60;;;;;;;12.30;32.64;103148.63;5040912;28;20041;-71
2023/04/17 10:38:06;;;;;;;2.10;0.60;;;;;;;12.31;32.35;103150.38;5033684;28;20107;-70
2023/04/17 10:40:34;;;;;;;3.00;0.60;;;;;;;12.30;32.40;103154.75;5034364;28;20052;-71
2023/04/17 10:43:12;;;;;;;1.60;0.82;;;;;;;12.30;32.13;103154.75;5040036;28;20045;-70
2023/04/17 10:46:02;;;;;;;1.63;0.57;;;;;;;12.30;32.59;103159.97;5039627;28;20045;-70
2023/04/17 10:48:33;;;;;;;2.83;0.80;;;;;;;12.29;32.22;103158.19;5037803;28;20065;-71
2023/04/17 10:51:01;;;;;;;1.20;0.70;;;;;;;12.30;32.66;103162.59;5036867;28;20132;-71
2023/04/17 10:53:43;;;;;;;1.77;0.77;;;;;;;12.31;32.26;103169.59;5034367;28;20045;-74
2023/04/17 10:56:11;;;;;;;2.88;0.50;;;;;;;12.31;32.46;103158.25;5035151;28;20798;-73
2023/04/17 10:58:54;;;;;;;2.03;0.77;;;;;;;12.28;32.75;103148.59;5034014;28;20494;-74
2023/04/17 11:01:25;;;;;;;1.38;0.50;;;;;;;12.37;32.65;103167.03;5036626;28;20059;-74
2023/04/17 11:03:53;;;;;;;0.90;0.57;;;;;;;12.38;32.08;103171.44;5039828;28;20127;-75
2023/04/17 11:06:20;;;;;;;1.33;0.60;;;;;;;12.38;32.70;103173.19;5038428;28;20057;-74
2023/04/17 11:08:48;;;;;;;1.52;0.70;;;;;;;12.40;32.33;103173.19;5038323;28;20059;-75
2023/04/17 11:11:16;;;;;;;3.97;0.60;;;;;;;12.42;32.18;103176.72;5041196;28;20447;-72
2023/04/17 11:13:46;;;;;;;2.90;0.60;;;;;;;12.42;31.31;103168.84;5037430;28;20103;-74
2023/04/17 11:16:13;;;;;;;2.97;1.10;;;;;;;12.42;32.13;103172.34;5036446;28;20469;-74
2023/04/17 11:18:40;;;;;;;1.85;0.50;;;;;;;12.42;32.30;103174.97;5036940;28;20064;-74
2023/04/17 11:21:12;;;;;;;2.15;0.85;;;;;;;12.43;31.96;103184.59;5036872;28;20056;-73
2023/04/17 11:23:39;;;;;;;2.58;0.52;;;;;;;12.46;31.77;103175.88;5035739;28;20040;-72
2023/04/17 11:26:06;;;;;;;2.42;0.70;;;;;;;12.47;31.98;103177.66;5036288;28;20046;-73
2023/04/17 11:28:35;;;;;;;2.55;0.70;;;;;;;12.49;31.46;103175.91;5031072;28;20041;-74
2023/04/17 11:31:02;;;;;;;4.05;0.80;;;;;;;12.50;31.80;103181.19;5033864;28;20053;-73
2023/04/17 11:33:35;;;;;;;2.80;0.60;;;;;;;12.50;31.34;103182.94;5034659;28;20048;-73
2023/04/17 11:36:02;;;;;;;2.55;0.77;;;;;;;12.47;31.54;103175.03;5036959;28;20164;-75